Time;durP1;ratioP1;P1;durP2;ratioP2;P2;SDS_P1;SDS_P2;PMS_P1;PMS_P2;Temp;Humidity;BMP_temperature;BMP_pressure;BME280_temperature;BME280_humidity;BME280_pressure;Samples;Min_cycle;Max_cycle;Signal;HPM_P1;HPM_P2
2022/01/21 00:00:57;;;;;;;7.65;3.30;;;;;;;;;;4983079;28;20215;-85
2022/01/21 00:03:24;;;;;;;5.10;2.80;;;;;;;;;;4985174;28;20191;-82
2022/01/21 00:05:50;;;;;;;7.13;2.70;;;;;;;;;;4967727;28;20190;-84
2022/01/21 00:08:16;;;;;;;5.97;2.70;;;;;;;;;;4983093;28;20306;-83
2022/01/21 00:10:42;;;;;;;6.50;3.35;;;;;;;;;;4966926;28;20211;-84
2022/01/21 00:13:18;;;;;;;8.43;2.40;;;;;;;;;;4968917;28;20180;-83
2022/01/21 00:15:44;;;;;;;11.68;3.47;;;;;;;;;;4967548;28;20327;-83
2022/01/21 00:18:11;;;;;;;9.93;3.55;;;;;;;;;;4968116;28;20191;-83
2022/01/21 00:31:47;;;;;;;7.53;2.78;;;;;;;;;;4980660;28;20187;-83
2022/01/21 00:34:13;;;;;;;8.02;3.35;;;;;;;;;;4964696;28;20200;-83
2022/01/21 00:36:39;;;;;;;6.97;2.90;;;;;;;;;;4984067;28;20619;-84
2022/01/21 00:39:05;;;;;;;10.63;3.72;;;;;;;;;;4963289;28;20191;-82
2022/01/21 00:41:36;;;;;;;8.20;4.15;;;;;;;;;;4979995;28;20195;-82
2022/01/21 00:44:02;;;;;;;15.18;4.25;;;;;;;;;;4980354;28;20211;-84
2022/01/21 00:46:28;;;;;;;9.48;3.95;;;;;;;;;;4965934;28;20223;-83
2022/01/21 00:48:54;;;;;;;11.13;4.00;;;;;;;;;;4964922;28;20747;-83
2022/01/21 00:51:20;;;;;;;6.60;3.38;;;;;;;;;;4983939;28;20180;-82
2022/01/21 00:53:46;;;;;;;9.13;3.63;;;;;;;;;;4980200;28;20200;-83
2022/01/21 00:56:12;;;;;;;11.10;3.58;;;;;;;;;;4965822;28;20321;-82
2022/01/21 00:58:38;;;;;;;7.35;2.65;;;;;;;;;;4966393;28;20332;-84
2022/01/21 01:01:04;;;;;;;12.00;3.75;;;;;;;;;;5037552;28;20182;-83
2022/01/21 01:03:30;;;;;;;13.00;3.90;;;;;;;;;;5043463;28;20244;-82
2022/01/21 01:05:56;;;;;;;15.38;3.53;;;;;;;;;;5043268;28;20186;-83
2022/01/21 01:08:22;;;;;;;9.30;4.13;;;;;;;;;;5042416;28;20294;-82
2022/01/21 01:21:33;;;;;;;8.38;3.40;;;;;;;;;;5043720;28;20201;-83
2022/01/21 01:27:36;;;;;;;9.88;3.33;;;;;;;;;;5037001;28;20189;-83
2022/01/21 01:29:36;;;;;;;5.60;2.80;;;;;;;;;;5039390;28;20312;-83
2022/01/21 01:32:03;;;;;;;7.03;3.30;;;;;;;;;;5042295;28;20204;-84
2022/01/21 01:34:29;;;;;;;9.90;3.20;;;;;;;;;;5041314;28;20190;-83
2022/01/21 01:36:58;;;;;;;10.10;3.55;;;;;;;;;;5043098;28;20605;-82
2022/01/21 01:42:14;;;;;;;8.90;3.55;;;;;;;;;;5042601;28;20224;-83
2022/01/21 01:50:26;;;;;;;13.65;4.00;;;;;;;;;;5042406;28;20284;-82
2022/01/21 01:52:52;;;;;;;7.35;2.17;;;;;;;;;;5041826;28;20198;-83
2022/01/21 01:55:18;;;;;;;5.03;2.40;;;;;;;;;;5041411;28;20189;-83
2022/01/21 01:57:45;;;;;;;12.38;3.63;;;;;;;;;;5041946;28;20178;-82
2022/01/21 02:00:12;;;;;;;4.05;2.42;;;;;;;;;;5042695;28;20549;-83
2022/01/21 02:02:37;;;;;;;4.55;2.65;;;;;;;;;;5041632;28;20189;-83
2022/01/21 02:05:04;;;;;;;6.20;3.00;;;;;;;;;;5041686;28;20196;-82
2022/01/21 02:07:30;;;;;;;7.88;2.70;;;;;;;;;;5040548;28;20648;-83
2022/01/21 02:09:56;;;;;;;11.13;3.83;;;;;;;;;;5041261;28;20196;-83
2022/01/21 02:12:22;;;;;;;7.28;2.67;;;;;;;;;;5041864;28;20208;-83
2022/01/21 02:14:51;;;;;;;5.47;2.95;;;;;;;;;;5042767;28;20210;-83
2022/01/21 02:22:34;;;;;;;10.57;3.15;;;;;;;;;;5042812;28;20196;-82
2022/01/21 02:25:15;;;;;;;6.10;1.95;;;;;;;;;;5042187;28;20243;-83
2022/01/21 02:27:41;;;;;;;6.60;2.78;;;;;;;;;;5038823;28;20197;-83
2022/01/21 02:30:07;;;;;;;6.72;3.67;;;;;;;;;;5041779;28;20182;-82
2022/01/21 02:32:34;;;;;;;6.43;2.35;;;;;;;;;;5041137;28;20173;-82
2022/01/21 02:34:59;;;;;;;8.38;2.60;;;;;;;;;;5042643;28;20177;-83
2022/01/21 02:37:25;;;;;;;7.20;2.47;;;;;;;;;;5040095;28;20196;-83
2022/01/21 02:39:52;;;;;;;5.15;2.50;;;;;;;;;;5041834;28;20176;-82
2022/01/21 02:42:18;;;;;;;4.78;2.42;;;;;;;;;;5041989;28;20674;-83
2022/01/21 02:44:44;;;;;;;13.75;3.80;;;;;;;;;;5041081;28;20627;-81
2022/01/21 02:47:10;;;;;;;4.57;2.60;;;;;;;;;;5039543;28;20222;-82
2022/01/21 02:49:36;;;;;;;11.35;3.05;;;;;;;;;;5039820;28;20215;-82
2022/01/21 02:52:04;;;;;;;3.85;2.53;;;;;;;;;;5042903;28;20654;-82
2022/01/21 02:54:31;;;;;;;7.38;2.60;;;;;;;;;;5042783;28;20634;-82
2022/01/21 02:56:58;;;;;;;10.25;2.60;;;;;;;;;;5041335;28;20201;-82
2022/01/21 02:59:24;;;;;;;7.85;2.92;;;;;;;;;;5042524;28;20193;-82
2022/01/21 03:01:50;;;;;;;5.07;2.50;;;;;;;;;;5041079;28;20182;-81
2022/01/21 03:04:24;;;;;;;7.63;2.88;;;;;;;;;;5041263;28;20181;-82
2022/01/21 03:06:50;;;;;;;7.05;2.40;;;;;;;;;;5041600;28;20177;-82
2022/01/21 03:09:16;;;;;;;3.75;3.40;;;;;;;;;;5042550;28;20247;-81
2022/01/21 03:11:42;;;;;;;3.40;1.70;;;;;;;;;;5041078;28;20257;-82
2022/01/21 03:14:08;;;;;;;13.90;2.78;;;;;;;;;;5042315;28;20178;-81
2022/01/21 03:16:34;;;;;;;7.07;3.22;;;;;;;;;;5039772;28;20206;-82
2022/01/21 03:19:01;;;;;;;6.35;2.50;;;;;;;;;;5041970;28;20189;-82
2022/01/21 03:21:27;;;;;;;3.92;2.17;;;;;;;;;;5041740;28;20170;-82
2022/01/21 03:23:54;;;;;;;6.28;3.05;;;;;;;;;;5041263;28;20189;-82
2022/01/21 03:26:22;;;;;;;7.85;2.40;;;;;;;;;;5043740;28;20197;-82
2022/01/21 03:28:48;;;;;;;4.28;2.22;;;;;;;;;;5043963;28;20214;-82
2022/01/21 03:31:15;;;;;;;11.23;2.60;;;;;;;;;;5046024;28;20213;-82
2022/01/21 03:33:41;;;;;;;10.75;2.97;;;;;;;;;;5044757;28;20170;-82
2022/01/21 03:36:09;;;;;;;7.75;2.67;;;;;;;;;;5038949;28;20246;-82
2022/01/21 03:38:36;;;;;;;7.63;2.70;;;;;;;;;;5039892;28;20201;-81
2022/01/21 03:41:02;;;;;;;10.50;2.80;;;;;;;;;;5045691;28;20193;-82
2022/01/21 03:43:28;;;;;;;4.18;2.58;;;;;;;;;;5043227;28;20226;-82
2022/01/21 03:45:55;;;;;;;4.43;2.60;;;;;;;;;;5043564;28;20197;-81
2022/01/21 03:48:21;;;;;;;4.45;2.45;;;;;;;;;;5027802;28;20217;-82
2022/01/21 03:50:47;;;;;;;4.18;2.30;;;;;;;;;;5021737;28;20249;-82
2022/01/21 03:53:13;;;;;;;6.13;2.97;;;;;;;;;;5047883;28;20186;-82
2022/01/21 03:55:39;;;;;;;5.65;2.25;;;;;;;;;;5028606;28;20205;-82
2022/01/21 03:58:06;;;;;;;7.10;3.00;;;;;;;;;;5047394;28;20215;-82
2022/01/21 04:00:37;;;;;;;12.75;3.38;;;;;;;;;;5025790;28;20194;-81
2022/01/21 04:03:03;;;;;;;6.93;2.92;;;;;;;;;;5026287;28;20205;-82
2022/01/21 04:05:30;;;;;;;5.35;2.70;;;;;;;;;;5029860;28;20194;-81
2022/01/21 04:07:56;;;;;;;5.40;2.78;;;;;;;;;;5029833;28;20757;-82
2022/01/21 04:10:22;;;;;;;7.28;2.40;;;;;;;;;;5026447;28;20182;-82
2022/01/21 04:12:48;;;;;;;5.00;3.25;;;;;;;;;;5027538;28;20181;-82
2022/01/21 04:15:14;;;;;;;6.90;4.18;;;;;;;;;;5047055;28;20182;-82
2022/01/21 04:17:40;;;;;;;5.13;2.50;;;;;;;;;;5028478;28;20213;-82
2022/01/21 04:20:07;;;;;;;4.10;2.30;;;;;;;;;;5027641;28;20217;-83
2022/01/21 04:22:33;;;;;;;4.07;2.63;;;;;;;;;;5047579;28;20189;-82
2022/01/21 04:25:00;;;;;;;5.28;3.30;;;;;;;;;;5028495;28;20282;-82
2022/01/21 04:27:27;;;;;;;4.45;2.40;;;;;;;;;;5045889;28;20173;-82
2022/01/21 04:29:53;;;;;;;11.70;3.15;;;;;;;;;;5027556;28;20249;-82
2022/01/21 04:32:19;;;;;;;6.97;2.72;;;;;;;;;;5047464;28;20193;-82
2022/01/21 04:34:45;;;;;;;5.72;2.72;;;;;;;;;;5028289;28;20178;-82
2022/01/21 04:37:13;;;;;;;6.18;2.80;;;;;;;;;;5028015;28;20185;-83
2022/01/21 04:39:55;;;;;;;4.65;2.70;;;;;;;;;;5044855;28;20177;-82
2022/01/21 04:47:51;;;;;;;3.95;2.60;;;;;;;;;;5046012;28;20236;-82
2022/01/21 04:50:17;;;;;;;6.10;3.08;;;;;;;;;;5027355;28;20208;-82
2022/01/21 04:52:43;;;;;;;7.45;2.65;;;;;;;;;;5026992;28;20182;-82
2022/01/21 04:55:09;;;;;;;12.35;3.63;;;;;;;;;;5028041;28;20180;-82
2022/01/21 04:57:35;;;;;;;3.67;3.05;;;;;;;;;;5040865;28;20215;-82
2022/01/21 05:00:01;;;;;;;8.25;3.40;;;;;;;;;;5027108;28;20185;-82
2022/01/21 05:02:28;;;;;;;7.45;2.50;;;;;;;;;;5027879;28;20182;-82
2022/01/21 05:04:54;;;;;;;8.60;2.97;;;;;;;;;;5027987;28;20201;-82
2022/01/21 05:07:24;;;;;;;8.48;2.70;;;;;;;;;;5025626;28;20190;-82
2022/01/21 05:09:50;;;;;;;9.73;3.80;;;;;;;;;;5025759;28;20262;-82
2022/01/21 05:12:20;;;;;;;11.25;3.28;;;;;;;;;;5028573;28;20634;-83
2022/01/21 05:17:15;;;;;;;3.80;2.47;;;;;;;;;;5045946;28;20189;-82
2022/01/21 05:19:41;;;;;;;5.47;2.42;;;;;;;;;;5027571;28;20755;-83
2022/01/21 05:22:07;;;;;;;10.00;3.22;;;;;;;;;;5029203;28;20178;-83
2022/01/21 05:24:33;;;;;;;12.77;3.00;;;;;;;;;;5027037;28;20194;-82
2022/01/21 05:27:01;;;;;;;6.90;3.28;;;;;;;;;;5018868;28;20278;-83
2022/01/21 05:29:32;;;;;;;5.22;3.05;;;;;;;;;;5039343;28;20201;-83
2022/01/21 05:31:58;;;;;;;8.98;2.60;;;;;;;;;;5039026;28;20243;-82
2022/01/21 05:34:25;;;;;;;8.68;3.03;;;;;;;;;;5026024;28;20190;-82
2022/01/21 05:36:51;;;;;;;8.13;2.78;;;;;;;;;;5025276;28;20169;-82
2022/01/21 05:39:18;;;;;;;7.03;2.95;;;;;;;;;;5028041;28;20264;-82
2022/01/21 05:41:47;;;;;;;10.48;4.75;;;;;;;;;;5026878;28;20193;-82
2022/01/21 05:44:21;;;;;;;5.50;2.72;;;;;;;;;;5044835;28;20523;-83
2022/01/21 05:46:56;;;;;;;7.25;2.70;;;;;;;;;;5025854;28;20245;-82
2022/01/21 05:49:22;;;;;;;8.32;2.83;;;;;;;;;;5043507;28;20205;-82
2022/01/21 05:51:49;;;;;;;4.70;2.05;;;;;;;;;;5026423;28;20177;-82
2022/01/21 05:54:15;;;;;;;11.57;3.83;;;;;;;;;;5026541;28;20162;-82
2022/01/21 05:56:41;;;;;;;8.25;2.60;;;;;;;;;;5044737;28;20244;-84
2022/01/21 05:59:08;;;;;;;11.65;3.10;;;;;;;;;;5025505;28;20287;-83
2022/01/21 06:01:35;;;;;;;8.85;2.83;;;;;;;;;;5026528;28;20200;-83
2022/01/21 06:04:04;;;;;;;10.10;3.00;;;;;;;;;;5026418;28;20197;-83
2022/01/21 06:06:30;;;;;;;13.65;3.10;;;;;;;;;;5026009;28;20177;-82
2022/01/21 06:08:57;;;;;;;7.30;3.45;;;;;;;;;;5026129;28;20205;-81
2022/01/21 06:11:23;;;;;;;7.38;2.40;;;;;;;;;;5026791;28;20182;-82
2022/01/21 06:13:50;;;;;;;8.23;2.97;;;;;;;;;;5028301;28;20204;-82
2022/01/21 06:16:17;;;;;;;11.40;3.97;;;;;;;;;;5025591;28;20186;-82
2022/01/21 06:18:43;;;;;;;3.40;2.03;;;;;;;;;;5025241;28;20177;-82
2022/01/21 06:21:09;;;;;;;6.18;3.00;;;;;;;;;;5025266;28;20264;-82
2022/01/21 06:23:35;;;;;;;4.45;2.90;;;;;;;;;;5026123;28;20208;-82
2022/01/21 06:26:01;;;;;;;7.25;2.92;;;;;;;;;;5037771;28;20646;-82
2022/01/21 06:28:27;;;;;;;5.88;2.78;;;;;;;;;;5044062;28;20213;-83
2022/01/21 06:30:53;;;;;;;7.40;3.42;;;;;;;;;;5024942;28;20332;-82
2022/01/21 06:33:23;;;;;;;6.25;2.95;;;;;;;;;;5039558;28;20249;-81
2022/01/21 06:35:52;;;;;;;9.60;4.22;;;;;;;;;;5043132;28;20186;-80
2022/01/21 06:38:19;;;;;;;32.25;13.48;;;;;;;;;;5025536;28;20185;-81
2022/01/21 06:40:46;;;;;;;57.65;30.33;;;;;;;;;;5025090;28;20181;-81
2022/01/21 06:43:12;;;;;;;25.50;11.95;;;;;;;;;;5025717;28;20177;-81
2022/01/21 06:45:38;;;;;;;10.57;4.70;;;;;;;;;;5042884;28;20181;-81
2022/01/21 06:48:04;;;;;;;14.23;6.38;;;;;;;;;;5043597;28;20217;-81
2022/01/21 06:50:34;;;;;;;12.77;4.57;;;;;;;;;;5025849;28;20185;-80
2022/01/21 06:53:00;;;;;;;11.50;7.10;;;;;;;;;;5026379;28;20208;-81
2022/01/21 06:55:26;;;;;;;15.20;4.03;;;;;;;;;;5024112;28;20186;-81
2022/01/21 06:57:52;;;;;;;8.77;3.83;;;;;;;;;;5042469;28;20208;-81
2022/01/21 07:00:19;;;;;;;7.50;3.92;;;;;;;;;;5030148;28;20580;-82
2022/01/21 07:02:49;;;;;;;6.15;2.30;;;;;;;;;;5029223;28;20189;-81
2022/01/21 07:05:15;;;;;;;12.68;4.32;;;;;;;;;;5029438;28;20178;-81
2022/01/21 07:07:41;;;;;;;6.07;3.55;;;;;;;;;;5047785;28;20191;-82
2022/01/21 07:10:07;;;;;;;6.15;3.75;;;;;;;;;;5041670;28;20185;-80
2022/01/21 07:12:34;;;;;;;8.57;4.00;;;;;;;;;;5029205;28;20173;-80
2022/01/21 07:15:00;;;;;;;10.35;3.38;;;;;;;;;;5046637;28;20196;-81
2022/01/21 07:17:26;;;;;;;5.93;3.72;;;;;;;;;;5048045;28;20535;-80
2022/01/21 07:19:52;;;;;;;10.60;3.65;;;;;;;;;;5048623;28;20186;-81
2022/01/21 07:22:18;;;;;;;8.27;3.92;;;;;;;;;;5026955;28;20207;-82
2022/01/21 07:24:44;;;;;;;11.00;3.83;;;;;;;;;;5028218;28;20206;-81
2022/01/21 07:27:10;;;;;;;11.07;3.30;;;;;;;;;;5027384;28;20177;-82
2022/01/21 07:29:36;;;;;;;6.15;5.30;;;;;;;;;;5028999;28;20210;-81
2022/01/21 07:32:03;;;;;;;8.20;6.18;;;;;;;;;;5029633;28;20182;-82
2022/01/21 07:34:29;;;;;;;7.90;4.72;;;;;;;;;;5026002;28;20268;-83
2022/01/21 07:36:55;;;;;;;6.57;5.07;;;;;;;;;;5027452;28;20161;-82
2022/01/21 07:39:21;;;;;;;11.00;5.10;;;;;;;;;;5030536;28;20212;-82
2022/01/21 07:41:48;;;;;;;8.57;5.30;;;;;;;;;;5028834;28;20205;-81
2022/01/21 07:44:14;;;;;;;7.30;5.70;;;;;;;;;;5046820;28;20320;-81
2022/01/21 07:46:41;;;;;;;10.48;5.82;;;;;;;;;;5027250;28;20221;-83
2022/01/21 07:49:07;;;;;;;7.95;5.30;;;;;;;;;;5045524;28;20213;-83
2022/01/21 07:51:33;;;;;;;7.78;3.83;;;;;;;;;;5039537;28;20212;-83
2022/01/21 07:53:59;;;;;;;8.05;5.60;;;;;;;;;;5027536;28;20178;-83
2022/01/21 07:56:25;;;;;;;8.95;4.20;;;;;;;;;;5027853;28;20178;-84
2022/01/21 07:58:52;;;;;;;8.93;4.43;;;;;;;;;;5047464;28;20304;-83
2022/01/21 08:01:18;;;;;;;6.28;3.85;;;;;;;;;;5026334;28;20189;-84
2022/01/21 08:03:44;;;;;;;6.18;4.40;;;;;;;;;;5027728;28;20173;-83
2022/01/21 08:06:10;;;;;;;11.57;5.15;;;;;;;;;;5025577;28;20635;-83
2022/01/21 08:08:36;;;;;;;8.25;4.00;;;;;;;;;;5045983;28;20288;-83
2022/01/21 08:11:02;;;;;;;8.70;4.38;;;;;;;;;;5021288;28;20339;-82
2022/01/21 08:13:28;;;;;;;9.57;5.28;;;;;;;;;;5024383;28;20182;-83
2022/01/21 08:15:56;;;;;;;6.60;4.30;;;;;;;;;;5026514;28;20194;-82
2022/01/21 08:18:22;;;;;;;9.20;5.10;;;;;;;;;;5023495;28;20186;-82
2022/01/21 08:20:48;;;;;;;9.05;4.30;;;;;;;;;;5028067;28;20190;-83
2022/01/21 08:23:15;;;;;;;9.02;4.53;;;;;;;;;;5028712;28;20252;-82
2022/01/21 08:25:41;;;;;;;7.47;4.05;;;;;;;;;;5028898;28;20190;-83
2022/01/21 08:28:07;;;;;;;6.38;4.28;;;;;;;;;;5045475;28;20212;-83
2022/01/21 08:30:34;;;;;;;9.73;4.60;;;;;;;;;;5027734;28;20178;-82
2022/01/21 08:33:01;;;;;;;5.78;4.95;;;;;;;;;;5028243;28;20189;-83
2022/01/21 08:35:27;;;;;;;11.50;4.65;;;;;;;;;;5045616;28;20268;-83
2022/01/21 08:37:53;;;;;;;7.93;4.65;;;;;;;;;;5028242;28;20217;-82
2022/01/21 08:40:23;;;;;;;11.77;5.00;;;;;;;;;;5011920;28;20254;-83
2022/01/21 08:42:50;;;;;;;9.95;5.07;;;;;;;;;;5026877;28;20177;-83
2022/01/21 08:45:16;;;;;;;5.82;4.30;;;;;;;;;;5028994;28;20706;-83
2022/01/21 08:47:43;;;;;;;8.90;4.57;;;;;;;;;;5040569;28;20276;-83
2022/01/21 08:50:14;;;;;;;9.73;4.78;;;;;;;;;;5042082;28;20240;-83
2022/01/21 08:52:41;;;;;;;13.30;4.45;;;;;;;;;;5043268;28;20264;-84
2022/01/21 08:55:18;;;;;;;5.97;4.53;;;;;;;;;;5042750;28;20196;-84
2022/01/21 08:57:45;;;;;;;9.50;5.30;;;;;;;;;;5056466;28;20267;-84
2022/01/21 09:00:13;;;;;;;16.02;5.30;;;;;;;;;;5042937;28;20615;-83
2022/01/21 09:02:39;;;;;;;7.60;5.25;;;;;;;;;;5043795;28;20178;-83
2022/01/21 09:05:06;;;;;;;12.70;6.05;;;;;;;;;;5042218;28;20178;-83
2022/01/21 09:07:32;;;;;;;8.88;4.70;;;;;;;;;;5043539;28;20243;-83
2022/01/21 09:09:58;;;;;;;12.60;5.47;;;;;;;;;;5042554;28;20182;-82
2022/01/21 09:12:24;;;;;;;17.15;6.18;;;;;;;;;;5042743;28;20180;-82
2022/01/21 09:14:50;;;;;;;21.40;6.10;;;;;;;;;;5040237;28;20761;-82
2022/01/21 09:17:16;;;;;;;14.95;6.40;;;;;;;;;;5041760;28;20197;-81
2022/01/21 09:19:42;;;;;;;16.33;6.07;;;;;;;;;;5036628;28;20220;-82
2022/01/21 09:22:08;;;;;;;10.30;5.93;;;;;;;;;;5025004;28;20190;-81
2022/01/21 09:24:34;;;;;;;11.13;6.07;;;;;;;;;;5043312;28;20181;-82
2022/01/21 09:27:01;;;;;;;11.70;6.10;;;;;;;;;;5041870;28;20181;-83
2022/01/21 09:29:27;;;;;;;12.20;5.70;;;;;;;;;;5038593;28;20205;-81
2022/01/21 09:31:53;;;;;;;15.50;8.73;;;;;;;;;;5042613;28;20185;-81
2022/01/21 09:34:19;;;;;;;18.10;8.20;;;;;;;;;;5039886;28;20671;-82
2022/01/21 09:36:46;;;;;;;16.40;8.70;;;;;;;;;;5042388;28;20197;-83
2022/01/21 09:39:12;;;;;;;16.42;7.95;;;;;;;;;;5032902;28;20177;-85
2022/01/21 09:41:42;;;;;;;15.27;7.80;;;;;;;;;;5039789;28;20189;-81
2022/01/21 09:44:11;;;;;;;13.38;6.95;;;;;;;;;;5041771;28;20178;-80
2022/01/21 09:46:42;;;;;;;9.40;5.07;;;;;;;;;;5041404;28;20228;-82
2022/01/21 09:49:21;;;;;;;10.85;5.72;;;;;;;;;;5026940;28;20201;-82
2022/01/21 09:51:47;;;;;;;9.23;4.30;;;;;;;;;;5041275;28;20169;-82
2022/01/21 09:54:13;;;;;;;10.75;5.97;;;;;;;;;;5042658;28;20188;-83
2022/01/21 09:56:39;;;;;;;11.10;5.30;;;;;;;;;;5041577;28;20185;-82
2022/01/21 09:59:06;;;;;;;10.32;5.65;;;;;;;;;;5041641;28;20182;-82
2022/01/21 10:01:33;;;;;;;10.30;5.22;;;;;;;;;;5040971;28;20281;-82
2022/01/21 10:04:00;;;;;;;15.50;4.95;;;;;;;;;;5041416;28;20173;-83
2022/01/21 10:06:26;;;;;;;7.35;5.15;;;;;;;;;;5042627;28;20181;-81
2022/01/21 10:08:56;;;;;;;9.02;4.55;;;;;;;;;;5041346;28;20269;-82
2022/01/21 10:11:23;;;;;;;13.48;4.50;;;;;;;;;;5041031;28;20193;-82
2022/01/21 10:13:50;;;;;;;13.15;6.30;;;;;;;;;;5042942;28;20204;-82
2022/01/21 10:16:16;;;;;;;15.32;6.78;;;;;;;;;;5041077;28;20205;-83
2022/01/21 10:19:01;;;;;;;17.92;6.10;;;;;;;;;;5041918;28;20178;-82
2022/01/21 10:21:34;;;;;;;9.38;5.25;;;;;;;;;;5037616;28;20182;-83
2022/01/21 10:24:08;;;;;;;10.55;6.35;;;;;;;;;;5040683;28;20192;-82
2022/01/21 10:26:34;;;;;;;13.73;5.65;;;;;;;;;;5040873;28;20201;-83
2022/01/21 10:29:00;;;;;;;8.23;5.03;;;;;;;;;;5041886;28;20712;-83
2022/01/21 10:31:30;;;;;;;7.72;5.53;;;;;;;;;;5039171;28;20239;-83
2022/01/21 10:33:59;;;;;;;11.40;4.30;;;;;;;;;;5044179;28;20177;-83
2022/01/21 10:36:35;;;;;;;11.00;5.63;;;;;;;;;;5049091;28;20177;-84
2022/01/21 10:39:10;;;;;;;8.20;4.50;;;;;;;;;;5048281;28;20669;-83
2022/01/21 10:41:40;;;;;;;9.30;5.70;;;;;;;;;;5046945;28;20200;-83
2022/01/21 10:44:13;;;;;;;10.30;5.22;;;;;;;;;;5049155;28;20602;-83
2022/01/21 10:46:40;;;;;;;6.15;3.70;;;;;;;;;;5046826;28;20288;-81
2022/01/21 10:49:11;;;;;;;11.82;4.03;;;;;;;;;;5048094;28;20264;-82
2022/01/21 10:51:38;;;;;;;11.70;5.50;;;;;;;;;;5061417;28;20212;-83
2022/01/21 10:54:21;;;;;;;12.02;4.40;;;;;;;;;;5049089;28;20185;-82
2022/01/21 10:57:05;;;;;;;18.13;5.15;;;;;;;;;;5047255;28;20185;-82
2022/01/21 10:59:47;;;;;;;8.10;4.75;;;;;;;;;;5049391;28;20268;-81
2022/01/21 11:02:14;;;;;;;8.23;4.05;;;;;;;;;;5048464;28;20198;-82
2022/01/21 11:04:41;;;;;;;13.00;5.28;;;;;;;;;;5043865;28;20205;-81
2022/01/21 11:07:07;;;;;;;8.27;4.65;;;;;;;;;;5047837;28;20197;-81
2022/01/21 11:09:37;;;;;;;12.13;5.50;;;;;;;;;;5031308;28;20266;-80
2022/01/21 11:12:08;;;;;;;11.43;6.20;;;;;;;;;;5048129;28;20192;-81
2022/01/21 11:14:34;;;;;;;7.47;4.80;;;;;;;;;;5048812;28;20518;-83
2022/01/21 11:17:15;;;;;;;9.02;4.50;;;;;;;;;;5046118;28;20235;-81
2022/01/21 11:19:43;;;;;;;7.82;3.97;;;;;;;;;;5048831;28;20559;-82
2022/01/21 11:22:09;;;;;;;13.60;4.82;;;;;;;;;;5031385;28;20186;-82
2022/01/21 11:24:47;;;;;;;7.60;4.28;;;;;;;;;;5040076;28;20192;-82
2022/01/21 11:27:15;;;;;;;6.88;4.55;;;;;;;;;;5037144;28;20186;-83
2022/01/21 11:29:42;;;;;;;11.10;6.22;;;;;;;;;;5043241;28;20224;-82
2022/01/21 11:32:08;;;;;;;10.20;4.55;;;;;;;;;;5046504;28;20288;-82
2022/01/21 11:34:35;;;;;;;11.52;5.82;;;;;;;;;;5047184;28;20212;-81
2022/01/21 11:37:02;;;;;;;11.50;4.00;;;;;;;;;;5047260;28;20197;-82
2022/01/21 11:39:30;;;;;;;7.85;4.65;;;;;;;;;;5048313;28;20205;-83
2022/01/21 11:41:57;;;;;;;7.90;4.80;;;;;;;;;;5047850;28;20194;-82
2022/01/21 11:44:26;;;;;;;9.52;4.03;;;;;;;;;;5048317;28;20391;-82
2022/01/21 11:47:14;;;;;;;11.20;5.40;;;;;;;;;;5044992;28;20209;-82
2022/01/21 11:49:41;;;;;;;15.88;5.90;;;;;;;;;;5026287;28;20265;-82
2022/01/21 11:52:12;;;;;;;10.57;5.22;;;;;;;;;;5027689;28;20189;-81
2022/01/21 11:54:39;;;;;;;7.63;3.97;;;;;;;;;;5041221;28;20172;-81
2022/01/21 11:57:06;;;;;;;8.88;4.40;;;;;;;;;;5028560;28;20662;-82
2022/01/21 11:59:38;;;;;;;12.80;5.47;;;;;;;;;;5027928;28;20196;-81
2022/01/21 12:02:13;;;;;;;7.63;5.30;;;;;;;;;;5047173;28;20220;-82
2022/01/21 12:04:39;;;;;;;10.77;4.50;;;;;;;;;;5028890;28;20217;-79
2022/01/21 12:07:25;;;;;;;10.10;5.68;;;;;;;;;;5029243;28;20596;-83
2022/01/21 12:09:55;;;;;;;6.88;4.00;;;;;;;;;;5026212;28;20321;-80
2022/01/21 12:12:23;;;;;;;7.78;4.72;;;;;;;;;;5025142;28;20364;-81
2022/01/21 12:14:55;;;;;;;8.90;5.03;;;;;;;;;;5047035;28;20271;-82
2022/01/21 12:17:49;;;;;;;8.80;4.25;;;;;;;;;;5041995;28;20189;-82
2022/01/21 12:20:15;;;;;;;10.43;3.58;;;;;;;;;;5027831;28;20182;-82
2022/01/21 12:22:41;;;;;;;7.15;3.85;;;;;;;;;;5027988;28;20182;-81
2022/01/21 12:25:07;;;;;;;7.65;4.20;;;;;;;;;;5043724;28;20186;-81
2022/01/21 12:27:33;;;;;;;11.20;4.55;;;;;;;;;;5027577;28;20549;-81
2022/01/21 12:30:23;;;;;;;12.50;4.68;;;;;;;;;;5044040;28;20229;-80
2022/01/21 12:33:07;;;;;;;10.82;5.25;;;;;;;;;;5045436;28;20245;-81
2022/01/21 12:35:34;;;;;;;21.50;6.82;;;;;;;;;;5026999;28;20186;-82
2022/01/21 12:39:05;;;;;;;11.82;5.53;;;;;;;;;;5025504;28;20181;-81
2022/01/21 12:40:58;;;;;;;5.97;5.00;;;;;;;;;;5040765;28;20222;-83
2022/01/21 12:43:43;;;;;;;5.82;5.28;;;;;;;;;;5028648;28;20185;-82
2022/01/21 12:46:27;;;;;;;8.52;4.65;;;;;;;;;;5042173;28;20181;-81
2022/01/21 12:48:54;;;;;;;10.15;5.45;;;;;;;;;;5020767;28;20205;-81
2022/01/21 12:51:33;;;;;;;10.75;5.60;;;;;;;;;;5028710;28;20170;-79
2022/01/21 12:56:48;;;;;;;8.63;4.20;;;;;;;;;;5044648;28;20197;-81
2022/01/21 12:59:22;;;;;;;8.43;4.60;;;;;;;;;;5027974;28;20190;-81
2022/01/21 13:01:49;;;;;;;9.25;4.50;;;;;;;;;;5027204;28;20188;-79
2022/01/21 13:04:34;;;;;;;11.90;4.10;;;;;;;;;;5027723;28;20189;-81
2022/01/21 13:07:07;;;;;;;12.63;4.95;;;;;;;;;;5027010;28;20173;-81
2022/01/21 13:09:48;;;;;;;11.82;5.60;;;;;;;;;;5026244;28;20259;-80
2022/01/21 13:12:16;;;;;;;11.52;4.03;;;;;;;;;;5044502;28;20211;-80
2022/01/21 13:14:51;;;;;;;12.20;5.35;;;;;;;;;;5045309;28;20182;-80
2022/01/21 13:17:18;;;;;;;6.93;3.85;;;;;;;;;;5023344;28;20552;-79
2022/01/21 13:19:54;;;;;;;12.80;5.30;;;;;;;;;;5023178;28;20181;-81
2022/01/21 13:22:21;;;;;;;10.15;4.70;;;;;;;;;;5033201;28;20193;-81
2022/01/21 13:24:51;;;;;;;11.18;4.35;;;;;;;;;;5026716;28;20260;-80
2022/01/21 13:27:17;;;;;;;9.90;4.03;;;;;;;;;;5045432;28;20186;-80
2022/01/21 13:29:43;;;;;;;12.90;3.50;;;;;;;;;;5026064;28;20220;-79
2022/01/21 13:32:09;;;;;;;9.45;3.60;;;;;;;;;;5025237;28;20650;-80
2022/01/21 13:34:39;;;;;;;5.28;3.63;;;;;;;;;;5025702;28;20193;-80
2022/01/21 13:37:06;;;;;;;8.55;3.70;;;;;;;;;;5027250;28;20272;-80
2022/01/21 13:39:34;;;;;;;12.45;4.50;;;;;;;;;;5025742;28;20184;-80
2022/01/21 13:42:03;;;;;;;6.65;3.85;;;;;;;;;;5022686;28;20217;-81
2022/01/21 13:44:30;;;;;;;10.80;3.92;;;;;;;;;;5035199;28;20186;-81
2022/01/21 13:46:57;;;;;;;9.82;3.67;;;;;;;;;;5025936;28;20225;-80
2022/01/21 13:49:24;;;;;;;11.10;4.15;;;;;;;;;;5043061;28;20265;-81
2022/01/21 13:52:00;;;;;;;6.53;3.53;;;;;;;;;;5042484;28;20578;-80
2022/01/21 13:54:33;;;;;;;5.13;3.60;;;;;;;;;;5039374;28;20182;-81
2022/01/21 13:57:00;;;;;;;9.75;4.63;;;;;;;;;;5041399;28;20189;-80
2022/01/21 13:59:26;;;;;;;7.63;3.42;;;;;;;;;;5041350;28;20194;-81
2022/01/21 14:02:09;;;;;;;9.95;3.53;;;;;;;;;;5034476;28;20193;-80
2022/01/21 14:04:35;;;;;;;4.30;3.10;;;;;;;;;;5042825;28;20182;-81
2022/01/21 14:07:01;;;;;;;7.13;3.28;;;;;;;;;;5040714;28;20201;-80
2022/01/21 14:09:28;;;;;;;5.55;2.80;;;;;;;;;;5041300;28;20225;-80
2022/01/21 14:11:54;;;;;;;9.10;3.72;;;;;;;;;;5039967;28;20190;-80
2022/01/21 14:14:24;;;;;;;3.00;2.60;;;;;;;;;;5041030;28;20192;-80
2022/01/21 14:16:54;;;;;;;8.93;3.78;;;;;;;;;;5042043;28;20201;-81
2022/01/21 14:19:22;;;;;;;4.88;3.20;;;;;;;;;;5038806;28;20183;-80
2022/01/21 14:21:49;;;;;;;5.65;2.90;;;;;;;;;;5041822;28;20283;-81
2022/01/21 14:24:18;;;;;;;6.13;3.05;;;;;;;;;;5041903;28;20228;-80
2022/01/21 14:26:48;;;;;;;6.43;3.63;;;;;;;;;;5042302;28;20190;-80
2022/01/21 14:29:14;;;;;;;6.05;3.10;;;;;;;;;;5041571;28;20285;-81
2022/01/21 14:31:41;;;;;;;8.40;2.97;;;;;;;;;;5040277;28;20570;-81
2022/01/21 14:34:11;;;;;;;7.63;2.70;;;;;;;;;;5041484;28;20530;-81
2022/01/21 14:36:38;;;;;;;4.75;3.03;;;;;;;;;;5038112;28;20189;-81
2022/01/21 14:39:08;;;;;;;6.60;3.17;;;;;;;;;;5040530;28;20197;-81
2022/01/21 14:41:39;;;;;;;3.70;2.67;;;;;;;;;;5040945;28;20190;-79
2022/01/21 14:44:05;;;;;;;4.25;2.60;;;;;;;;;;5041641;28;20220;-80
2022/01/21 14:46:31;;;;;;;5.03;2.50;;;;;;;;;;5039686;28;20311;-81
2022/01/21 14:48:58;;;;;;;9.32;3.05;;;;;;;;;;5041371;28;20674;-81
2022/01/21 14:51:34;;;;;;;5.22;2.67;;;;;;;;;;5042660;28;20209;-81
2022/01/21 14:54:11;;;;;;;6.85;2.50;;;;;;;;;;5039398;28;20605;-80
2022/01/21 14:56:37;;;;;;;10.70;2.20;;;;;;;;;;5040026;28;20181;-81
2022/01/21 14:59:15;;;;;;;4.20;2.63;;;;;;;;;;5040857;28;20186;-81
2022/01/21 15:02:08;;;;;;;6.03;3.20;;;;;;;;;;5040926;28;20196;-81
2022/01/21 15:04:37;;;;;;;4.95;2.90;;;;;;;;;;5026908;28;20228;-81
2022/01/21 15:07:07;;;;;;;7.95;2.85;;;;;;;;;;5041122;28;20205;-80
2022/01/21 15:09:33;;;;;;;7.20;3.08;;;;;;;;;;5043373;28;20197;-80
2022/01/21 15:14:45;;;;;;;6.47;2.97;;;;;;;;;;4977929;28;20211;-81
2022/01/21 15:17:12;;;;;;;11.30;3.63;;;;;;;;;;4964280;28;20187;-81
2022/01/21 15:19:43;;;;;;;8.90;3.85;;;;;;;;;;4964521;28;20206;-81
2022/01/21 15:22:11;;;;;;;7.63;2.72;;;;;;;;;;4983581;28;20192;-81
2022/01/21 15:24:38;;;;;;;6.30;3.28;;;;;;;;;;4985605;28;20203;-80
2022/01/21 15:27:04;;;;;;;4.38;2.50;;;;;;;;;;4984495;28;20210;-80
2022/01/21 15:29:30;;;;;;;6.18;2.58;;;;;;;;;;4967945;28;20212;-80
2022/01/21 15:31:56;;;;;;;5.47;3.17;;;;;;;;;;4967894;28;20258;-81
2022/01/21 15:34:22;;;;;;;9.82;3.95;;;;;;;;;;4968063;28;20183;-81
2022/01/21 15:36:48;;;;;;;4.00;2.78;;;;;;;;;;4984619;28;20223;-81